Time;durP1;ratioP1;P1;durP2;ratioP2;P2;SDS_P1;SDS_P2;PMS_P1;PMS_P2;Temp;Humidity;BMP_temperature;BMP_pressure;BME280_temperature;BME280_humidity;BME280_pressure;Samples;Min_cycle;Max_cycle;Signal;HPM_P1;HPM_P2
2021/11/07 00:19:58;;;;;;;10.30;6.53;;;;;;;;;;21078063;28;20044;-58
2021/11/07 00:30:14;;;;;;;11.30;6.85;;;;;;;;;;21085016;28;20048;-56
2021/11/07 00:50:25;;;;;;;14.18;6.43;;;;;;;;;;21095433;28;20051;-58
2021/11/07 01:10:36;;;;;;;9.52;6.03;;;;;;;;;;21093121;28;20055;-59
2021/11/07 01:20:40;;;;;;;11.48;5.70;;;;;;;;;;21094571;28;20377;-57
2021/11/07 01:30:49;;;;;;;5.50;4.20;;;;;;;;;;21072656;28;20105;-58
2021/11/07 01:51:05;;;;;;;8.38;4.70;;;;;;;;;;21090041;28;20059;-58
2021/11/07 02:01:10;;;;;;;11.00;6.20;;;;;;;;;;21070175;28;20052;-57
2021/11/07 02:11:14;;;;;;;9.85;5.47;;;;;;;;;;21087347;28;20105;-57
2021/11/07 02:21:21;;;;;;;12.00;5.95;;;;;;;;;;21086216;28;20051;-57
2021/11/07 02:31:28;;;;;;;10.15;5.35;;;;;;;;;;21085804;28;20449;-57
2021/11/07 02:41:33;;;;;;;12.13;6.17;;;;;;;;;;21085073;28;20054;-58
2021/11/07 02:51:39;;;;;;;11.65;5.97;;;;;;;;;;21083837;28;20140;-58
2021/11/07 03:01:49;;;;;;;7.93;4.88;;;;;;;;;;21082773;28;20063;-56
2021/11/07 03:12:02;;;;;;;10.27;5.13;;;;;;;;;;21082396;28;20056;-56
2021/11/07 03:22:18;;;;;;;9.70;4.83;;;;;;;;;;21081821;28;20528;-56
2021/11/07 03:32:37;;;;;;;9.35;4.45;;;;;;;;;;21081300;28;20058;-56
2021/11/07 03:42:58;;;;;;;7.97;4.23;;;;;;;;;;21081492;28;20060;-59
2021/11/07 03:53:07;;;;;;;8.90;3.88;;;;;;;;;;21080208;28;20048;-58
2021/11/07 04:03:22;;;;;;;5.93;3.95;;;;;;;;;;21080435;28;20399;-56
2021/11/07 04:13:31;;;;;;;8.68;4.10;;;;;;;;;;21079376;28;20476;-58
2021/11/07 04:23:38;;;;;;;8.05;3.70;;;;;;;;;;21078447;28;20051;-58
2021/11/07 04:33:50;;;;;;;8.55;4.00;;;;;;;;;;21078321;28;20048;-57
2021/11/07 04:44:12;;;;;;;8.65;3.83;;;;;;;;;;21079025;28;20059;-58
2021/11/07 04:54:33;;;;;;;5.35;3.63;;;;;;;;;;21077744;28;20105;-58
2021/11/07 05:04:53;;;;;;;6.40;3.87;;;;;;;;;;21077167;28;20424;-57
2021/11/07 05:15:15;;;;;;;9.00;4.10;;;;;;;;;;21083390;28;20055;-58
2021/11/07 05:25:26;;;;;;;7.80;4.25;;;;;;;;;;21074723;28;20098;-57
2021/11/07 05:35:32;;;;;;;;;;;;;;;;;;21091948;28;20465;-56
2021/11/07 05:45:39;;;;;;;6.50;3.80;;;;;;;;;;21090826;28;20395;-57
2021/11/07 05:55:42;;;;;;;8.30;4.15;;;;;;;;;;21089061;28;20083;-56
2021/11/07 06:05:46;;;;;;;6.03;3.72;;;;;;;;;;21088855;28;20048;-58
2021/11/07 06:15:50;;;;;;;5.97;3.70;;;;;;;;;;21088263;28;20496;-56
2021/11/07 06:25:53;;;;;;;6.93;4.03;;;;;;;;;;21085584;28;20048;-57
2021/11/07 06:35:58;;;;;;;9.37;4.87;;;;;;;;;;21085922;28;20051;-56
2021/11/07 06:46:01;;;;;;;6.93;4.13;;;;;;;;;;21084725;28;20308;-56
2021/11/07 06:56:06;;;;;;;10.60;4.70;;;;;;;;;;21066683;28;20063;-56
2021/11/07 07:06:11;;;;;;;5.55;3.22;;;;;;;;;;21083335;28;20048;-54
2021/11/07 07:36:46;;;;;;;6.05;3.25;;;;;;;;;;21080849;28;20401;-55
2021/11/07 07:46:50;;;;;;;7.25;3.33;;;;;;;;;;21072736;28;20404;-55
2021/11/07 07:56:53;;;;;;;6.40;3.50;;;;;;;;;;21080682;28;20427;-55
2021/11/07 08:06:56;;;;;;;6.25;3.47;;;;;;;;;;21079564;28;20051;-58
2021/11/07 08:17:01;;;;;;;5.57;3.83;;;;;;;;;;21078648;28;20093;-58
2021/11/07 08:27:05;;;;;;;7.75;5.03;;;;;;;;;;21060141;28;20070;-57
2021/11/07 08:37:13;;;;;;;8.00;4.20;;;;;;;;;;21077834;28;20129;-59
2021/11/07 09:18:06;;;;;;;7.68;5.30;;;;;;;;;;21092887;28;20044;-60
2021/11/07 09:28:24;;;;;;;10.18;5.82;;;;;;;;;;21073829;28;20547;-58
2021/11/07 09:38:34;;;;;;;8.70;6.10;;;;;;;;;;21090685;28;20073;-59
2021/11/07 09:48:43;;;;;;;10.73;5.80;;;;;;;;;;21089808;28;20063;-59
2021/11/07 09:58:49;;;;;;;10.93;5.40;;;;;;;;;;21087058;28;20056;-60
2021/11/07 10:08:54;;;;;;;8.90;5.18;;;;;;;;;;21088075;28;20457;-59
2021/11/07 10:19:12;;;;;;;6.95;4.05;;;;;;;;;;21086484;28;20056;-59
2021/11/07 10:29:28;;;;;;;4.70;3.15;;;;;;;;;;21085070;28;20075;-57
2021/11/07 11:00:31;;;;;;;5.63;4.13;;;;;;;;;;20870749;28;20053;-57
2021/11/07 11:21:15;;;;;;;3.80;2.70;;;;;;;;;;20956140;28;20463;-57
2021/11/07 11:31:26;;;;;;;6.72;3.45;;;;;;;;;;21081309;28;20125;-61
2021/11/07 11:41:41;;;;;;;4.05;2.88;;;;;;;;;;21081995;28;20051;-59
2021/11/07 12:02:49;;;;;;;6.78;4.25;;;;;;;;;;21078739;28;20401;-58
2021/11/07 12:12:58;;;;;;;7.43;3.33;;;;;;;;;;20738892;28;20054;-58
2021/11/07 12:23:27;;;;;;;7.75;3.50;;;;;;;;;;20743498;28;20128;-59
2021/11/07 12:33:45;;;;;;;6.80;3.85;;;;;;;;;;20766422;28;20080;-60
2021/11/07 12:44:02;;;;;;;4.40;2.67;;;;;;;;;;20898538;28;20404;-59
2021/11/07 12:54:09;;;;;;;5.93;2.70;;;;;;;;;;21104641;28;20048;-59
2021/11/07 13:04:12;;;;;;;5.55;3.08;;;;;;;;;;21103752;28;20100;-58
2021/11/07 13:14:34;;;;;;;8.35;2.85;;;;;;;;;;21103979;28;20048;-60
2021/11/07 13:35:01;;;;;;;4.57;2.90;;;;;;;;;;21099633;28;20083;-57
2021/11/07 13:45:11;;;;;;;6.22;2.58;;;;;;;;;;21090232;28;20058;-60
2021/11/07 13:55:14;;;;;;;4.78;2.22;;;;;;;;;;21088637;28;20051;-61
2021/11/07 14:05:18;;;;;;;3.43;1.70;;;;;;;;;;21087836;28;20090;-59
2021/11/07 14:15:30;;;;;;;2.55;1.45;;;;;;;;;;21087348;28;20048;-60
2021/11/07 14:25:44;;;;;;;5.35;2.10;;;;;;;;;;21086226;28;20049;-59
2021/11/07 14:35:49;;;;;;;3.38;1.40;;;;;;;;;;21085287;28;20052;-59
2021/11/07 14:46:07;;;;;;;;;;;;;;;;;;21084206;28;20040;-60
2021/11/07 14:56:19;;;;;;;2.72;1.77;;;;;;;;;;21082047;28;20364;-58
2021/11/07 15:06:36;;;;;;;5.10;1.75;;;;;;;;;;21083149;28;20373;-59
2021/11/07 15:26:47;;;;;;;4.03;2.17;;;;;;;;;;21081939;28;20074;-59
2021/11/07 15:36:50;;;;;;;3.42;2.00;;;;;;;;;;21063162;28;20056;-63
2021/11/07 15:46:56;;;;;;;4.00;2.05;;;;;;;;;;21080483;28;20052;-61
2021/11/07 16:07:15;;;;;;;7.00;4.47;;;;;;;;;;21078605;28;20048;-58
2021/11/07 16:17:24;;;;;;;7.25;4.55;;;;;;;;;;21078504;28;20503;-58
2021/11/07 16:27:26;;;;;;;4.95;2.50;;;;;;;;;;21078445;28;20131;-60
2021/11/07 16:37:34;;;;;;;3.97;2.22;;;;;;;;;;21078634;28;20086;-60
2021/11/07 16:47:38;;;;;;;3.05;1.48;;;;;;;;;;21076713;28;20066;-59
2021/11/07 16:57:44;;;;;;;3.40;2.17;;;;;;;;;;21076581;28;20476;-58
2021/11/07 17:18:09;;;;;;;3.75;2.22;;;;;;;;;;21091716;28;20134;-58
2021/11/07 17:38:22;;;;;;;5.88;3.28;;;;;;;;;;21090900;28;20485;-60
2021/11/07 17:58:45;;;;;;;5.82;3.70;;;;;;;;;;21087637;28;20052;-57
2021/11/07 18:08:54;;;;;;;8.80;4.03;;;;;;;;;;21062129;28;20575;-59
2021/11/07 18:18:56;;;;;;;7.28;3.85;;;;;;;;;;21085724;28;20100;-59
2021/11/07 18:28:58;;;;;;;9.95;4.55;;;;;;;;;;21066996;28;20044;-59
2021/11/07 18:39:00;;;;;;;10.18;4.30;;;;;;;;;;21085543;28;20040;-60
2021/11/07 18:49:03;;;;;;;15.20;8.88;;;;;;;;;;21085037;28;20097;-61
2021/11/07 18:59:05;;;;;;;9.18;4.65;;;;;;;;;;21084407;28;20060;-59
2021/11/07 19:09:07;;;;;;;7.70;5.03;;;;;;;;;;21083732;28;20052;-60
2021/11/07 19:19:09;;;;;;;7.03;4.25;;;;;;;;;;21082890;28;20044;-60
2021/11/07 19:29:11;;;;;;;9.90;4.95;;;;;;;;;;21081766;28;20098;-59
2021/11/07 19:39:14;;;;;;;9.32;5.70;;;;;;;;;;21081487;28;20048;-60
2021/11/07 19:49:26;;;;;;;10.43;6.63;;;;;;;;;;21080845;28;20361;-60
2021/11/07 19:59:31;;;;;;;8.55;5.97;;;;;;;;;;21080738;28;20113;-59
2021/11/07 20:09:33;;;;;;;10.67;6.27;;;;;;;;;;21079101;28;20044;-59
2021/11/07 20:19:35;;;;;;;13.07;6.25;;;;;;;;;;21078648;28;20040;-59
2021/11/07 20:29:39;;;;;;;9.70;5.75;;;;;;;;;;21078935;28;20492;-58
2021/11/07 20:39:42;;;;;;;9.27;5.97;;;;;;;;;;21078043;28;20162;-59
2021/11/07 20:59:53;;;;;;;13.95;7.28;;;;;;;;;;21094026;28;20392;-60
2021/11/07 21:10:01;;;;;;;15.02;7.72;;;;;;;;;;21093567;28;20527;-57
2021/11/07 21:30:27;;;;;;;10.60;7.65;;;;;;;;;;21091327;28;20101;-58
2021/11/07 21:51:04;;;;;;;10.55;5.68;;;;;;;;;;20832175;28;20367;-58
2021/11/07 22:01:06;;;;;;;12.30;7.78;;;;;;;;;;20829487;28;20492;-58
2021/11/07 22:11:08;;;;;;;11.30;6.80;;;;;;;;;;20830549;28;20053;-58
2021/11/07 22:21:17;;;;;;;9.65;5.47;;;;;;;;;;20907620;28;20077;-60
2021/11/07 22:31:23;;;;;;;7.47;4.82;;;;;;;;;;21087086;28;20138;-55
2021/11/07 22:41:27;;;;;;;10.35;6.28;;;;;;;;;;21069058;28;20051;-58
2021/11/07 22:51:51;;;;;;;10.50;5.63;;;;;;;;;;21086540;28;20048;-60
2021/11/07 23:01:59;;;;;;;6.50;4.05;;;;;;;;;;21085065;28;20048;-58
2021/11/07 23:12:01;;;;;;;5.32;4.13;;;;;;;;;;21083609;28;20101;-58
2021/11/07 23:22:14;;;;;;;6.47;4.20;;;;;;;;;;21048691;28;20043;-59
2021/11/07 23:32:17;;;;;;;6.65;3.78;;;;;;;;;;21082603;28;20080;-59
2021/11/07 23:42:21;;;;;;;6.65;4.40;;;;;;;;;;21081847;28;20071;-59
